Latest Coastal Weather Observations for Creal Reef

IDQ60701

Issued at 4:52 pm EST Tuesday 26 May 2020 (issued every 10 minutes, with the page automatically refreshed every 10 minutes)

About coastal observations | Map of coastal stations | Coastal observations for QLD | Marine services | Other Formats
Station Details ID: 200736 Name: CREAL REEF Lat: -20.53 Lon: 150.38 Height: 1.7 m
Data from the previous 72 hours. | See also: Recent months for locations in Queensland
Date/Time
EST
Wind Sea
Height
m
Swell Vis
km
Cloud Weather Temp
°C
Press
hPa
Rain since
9am
mm
Dir  Spd
kts
Gust
kts
Height
m
Period
s
Dir
26/04:30pm S 7 9 - - - - - - - 21.7 1017.1 -
26/04:00pm S 7 9 - - - - - - - 21.8 1016.9 -
26/03:30pm S 6 8 - - - - - - - 21.8 1017.2 -
26/03:00pm S 5 10 - - - - - - - 21.9 1017.1 -
26/02:30pm S 7 8 - - - - - - - 21.8 1017.2 -
26/02:00pm SSE 6 8 - - - - - - - 21.8 1017.2 -
26/01:30pm SSE 6 9 - - - - - - - 21.7 1017.6 -
26/01:00pm S 6 9 - - - - - - - 21.7 1017.8 -
26/12:30pm SSE 8 11 - - - - - - - 21.7 1018.4 -
26/12:00pm S 7 11 - - - - - - - 21.5 1018.7 -
26/11:30am SSE 6 9 - - - - - - - 21.5 1019.0 -
26/11:00am SSE 8 10 - - - - - - - 21.5 1019.3 -
26/10:30am SSE 8 13 - - - - - - - 21.4 1019.5 -
26/10:00am S 9 12 - - - - - - - 21.4 1019.5 -
26/09:30am S 9 12 - - - - - - - 21.3 1019.5 -
26/09:00am S 9 13 - - - - - - - 21.2 1019.3 -
26/08:30am S 9 12 - - - - - - - 21.2 1019.3 -
26/08:00am SSE 11 13 - - - - - - - 21.1 1019.1 -
26/07:30am S 10 14 - - - - - - - 21.1 1018.8 -
26/07:00am S 10 14 - - - - - - - 21.0 1018.7 -
26/06:30am S 11 15 - - - - - - - 20.6 1018.4 -
26/06:00am S 11 15 - - - - - - - 20.6 1017.9 -
26/05:30am SSW 11 15 - - - - - - - 20.5 1017.7 -
26/05:00am S 12 14 - - - - - - - 20.6 1017.4 -
26/04:30am SSW 12 14 - - - - - - - 20.4 1017.1 -
26/04:00am SSW 12 16 - - - - - - - 20.5 1017.0 -
26/03:30am S 12 16 - - - - - - - 20.5 1017.1 -
26/03:00am SSW 12 16 - - - - - - - 20.4 1017.3 -
26/02:30am SSW 10 14 - - - - - - - 20.3 1017.7 -
26/02:00am SSW 11 14 - - - - - - - 20.4 1017.7 -
26/01:30am S 10 12 - - - - - - - 20.6 1017.9 -
26/01:00am SW 10 14 - - - - - - - 20.4 1017.9 -
26/12:30am S 9 13 - - - - - - - 20.4 1018.1 -
26/12:00am SSW 10 13 - - - - - - - 20.5 1018.1 -
 
Date/Time
EST
Wind Sea
Height
m
Swell Vis
km
Cloud Weather Temp
°C
Press
hPa
Rain since
9am
mm
Dir  Spd
kts
Gust
kts
Height
m
Period
s
Dir
25/11:30pm SSW 7 10 - - - - - - - 20.3 1018.6 -
25/11:00pm SSW 5 7 - - - - - - - 20.1 1018.7 -
25/10:30pm SSW 4 6 - - - - - - - 19.9 1019.0 -
25/10:00pm WSW 5 6 - - - - - - - 19.9 1019.0 -
25/09:30pm SSW 3 4 - - - - - - - 19.8 1019.0 -
25/09:00pm SSW 5 8 - - - - - - - 19.7 1018.8 -
25/08:30pm WSW 3 4 - - - - - - - 19.7 1018.7 -
25/08:00pm S 3 5 - - - - - - - 19.7 1018.4 -
25/07:30pm SW 5 7 - - - - - - - 19.5 1018.2 -
25/07:00pm SSE 4 6 - - - - - - - 19.7 1017.6 -
25/06:30pm S 4 6 - - - - - - - 19.6 1017.1 -
25/06:00pm S 5 7 - - - - - - - 19.7 1016.8 -
25/05:30pm SW 5 8 - - - - - - - 19.8 1016.6 -
25/05:00pm SSW 6 9 - - - - - - - 20.3 1016.2 -
25/04:30pm SSW 6 8 - - - - - - - 20.3 1016.2 -
25/04:00pm SW 8 10 - - - - - - - 20.7 1015.8 -
25/03:30pm SW 6 9 - - - - - - - 20.6 1015.9 -
25/03:00pm SSW 7 9 - - - - - - - 20.1 1015.8 -
25/02:30pm SW 6 8 - - - - - - - 20.8 1016.0 -
25/02:00pm SW 7 8 - - - - - - - 20.8 1016.0 -
25/01:30pm SSW 6 8 - - - - - - - 20.3 1016.3 -
25/01:00pm S 7 8 - - - - - - - 20.4 1016.5 -
25/12:30pm SSW 6 9 - - - - - - - 20.9 1016.9 -
25/12:00pm S 7 10 - - - - - - - 20.2 1017.1 -
25/11:30am SSW 10 13 - - - - - - - 19.9 1017.5 -
25/11:00am SSE 8 11 - - - - - - - 20.3 1017.6 -
25/10:30am SSW 7 11 - - - - - - - 20.4 1017.9 -
25/10:00am S 10 13 - - - - - - - 20.2 1018.0 -
25/09:30am SSW 9 13 - - - - - - - 20.0 1017.9 -
25/09:00am S 9 13 - - - - - - - 19.9 1017.6 -
25/08:30am SSW 11 15 - - - - - - - 20.3 1017.7 -
25/08:00am SSW 13 16 - - - - - - - 20.2 1017.3 -
25/07:30am SSW 11 14 - - - - - - - 20.0 1017.0 -
25/07:00am S 12 16 - - - - - - - 20.0 1016.6 -
25/06:30am SSW 11 15 - - - - - - - 19.7 1016.5 -
25/06:00am SSW 13 18 - - - - - - - 19.7 1016.1 -
25/05:30am SW 12 16 - - - - - - - 19.8 1016.1 -
25/05:00am SSW 12 17 - - - - - - - 19.9 1015.6 -
25/04:30am SSW 13 19 - - - - - - - 19.9 1015.6 -
25/04:00am SSW 16 20 - - - - - - - 19.9 1015.2 -
25/03:30am SSW 14 18 - - - - - - - 19.8 1015.2 -
25/03:00am SW 15 18 - - - - - - - 19.9 1014.9 -
25/02:30am SSW 15 19 - - - - - - - 19.9 1015.2 -
25/02:00am SSW 14 19 - - - - - - - 20.0 1015.2 -
25/01:30am SW 14 19 - - - - - - - 19.9 1015.6 -
25/01:00am SSW 16 20 - - - - - - - 20.1 1015.4 -
25/12:30am SW 13 16 - - - - - - - 20.2 1015.9 -
25/12:00am SW 14 19 - - - - - - - 20.1 1015.7 -
 
Date/Time
EST
Wind Sea
Height
m
Swell Vis
km
Cloud Weather Temp
°C
Press
hPa
Rain since
9am
mm
Dir  Spd
kts
Gust
kts
Height
m
Period
s
Dir
24/11:30pm SW 16 21 - - - - - - - 20.1 1016.3 -
24/11:00pm SW 16 21 - - - - - - - 20.3 1016.3 -
24/10:30pm SW 15 18 - - - - - - - 20.3 1016.3 -
24/10:00pm SW 12 17 - - - - - - - 20.2 1016.5 -
24/09:30pm SSW 12 16 - - - - - - - 19.9 1016.6 -
24/09:00pm SW 11 14 - - - - - - - 19.6 1016.6 -
24/08:30pm WSW 11 14 - - - - - - - 19.5 1016.6 -
24/08:00pm WSW 10 13 - - - - - - - 19.2 1016.0 -
24/07:30pm WSW 11 16 - - - - - - - 19.0 1015.7 -
24/07:00pm SW 10 14 - - - - - - - 18.7 1015.6 -
24/06:30pm SSW 7 12 - - - - - - - 18.5 1015.3 -
24/06:00pm SW 7 10 - - - - - - - 18.4 1015.0 -
24/05:30pm SSW 8 14 - - - - - - - 18.2 1014.2 -
24/05:00pm SSW 10 15 - - - - - - - 18.3 1013.6 -
24/04:30pm SSW 10 17 - - - - - - - 18.4 1013.5 -
24/04:00pm SSW 11 14 - - - - - - - 18.6 1013.5 -
24/03:30pm SSW 12 15 - - - - - - - 18.6 1013.4 -
24/03:00pm SSW 12 19 - - - - - - - 18.4 1013.5 -
24/02:30pm S 15 18 - - - - - - - 18.2 1013.1 -
24/02:00pm SSW 15 19 - - - - - - - 18.0 1013.0 -
24/01:30pm S 14 19 - - - - - - - 18.1 1013.5 -
24/01:00pm SSW 13 17 - - - - - - - 18.3 1014.0 -
24/12:30pm SSW 16 20 - - - - - - - 18.6 1014.3 -
24/12:00pm SSW 15 19 - - - - - - - 18.6 1014.9 -
24/11:30am SSW 13 17 - - - - - - - 18.7 1015.4 -
24/11:00am SSW 16 20 - - - - - - - 19.2 1015.9 -
24/10:30am SSW 15 21 - - - - - - - 19.2 1015.7 -
24/10:00am SSW 17 22 - - - - - - - 19.2 1015.8 -
24/09:30am SSW 18 21 - - - - - - - 18.6 1015.3 -
24/09:00am SSW 19 22 - - - - - - - 18.6 1015.5 -
24/08:30am SSW 20 23 - - - - - - - 18.5 1015.1 -
24/08:00am SSW 18 23 - - - - - - - 18.7 1015.1 -
24/07:30am S 19 24 - - - - - - - 18.8 1014.3 -
24/07:00am SSW 18 24 - - - - - - - 18.9 1014.3 -
24/06:30am S 17 23 - - - - - - - 18.7 1013.6 -
24/06:00am S 19 24 - - - - - - - 18.7 1013.3 -
24/05:30am SSW 20 26 - - - - - - - 18.6 1013.1 -
24/05:00am SSW 19 23 - - - - - - - 18.5 1012.7 -
24/04:30am S 17 21 - - - - - - - 18.6 1012.5 -
24/04:00am S 16 19 - - - - - - - 18.2 1012.4 -
24/03:30am SSW 18 21 - - - - - - - 18.4 1013.2 -
24/03:00am SSW 17 21 - - - - - - - 18.4 1012.0 -
24/02:30am SSW 18 22 - - - - - - - 18.1 1013.2 -
24/02:00am SSW 17 21 - - - - - - - 18.0 1013.5 -
24/01:30am SSW 19 23 - - - - - - - 18.2 1012.7 -
24/01:00am SSW 20 23 - - - - - - - 18.1 1013.0 -
24/12:47am SSW 17 21 - - - - - - - 18.1 1012.0 -
24/12:44am S 17 20 - - - - - - - 18.2 1012.3 -
24/12:30am SW 20 25 - - - - - - - 18.1 1014.0 -
24/12:07am SSW 18 28 - - - - - - - 18.0 1013.2 -
24/12:00am SSW 21 28 - - - - - - - 18.1 1014.6 -
 
Date/Time
EST
Wind Sea
Height
m
Swell Vis
km
Cloud Weather Temp
°C
Press
hPa
Rain since
9am
mm
Dir  Spd
kts
Gust
kts
Height
m
Period
s
Dir
23/11:30pm SSW 19 22 - - - - - - - 18.1 1013.8 -
23/11:00pm SSW 16 20 - - - - - - - 18.2 1014.0 -
23/10:30pm SSW 18 23 - - - - - - - 17.5 1013.8 -
23/10:12pm SW 23 25 - - - - - - - 17.7 1015.4 -
23/10:00pm S 12 17 - - - - - - - 17.1 1014.0 -
23/09:30pm SSW 10 13 - - - - - - - 17.6 1014.2 -
23/09:00pm SSW 12 14 - - - - - - - 17.4 1014.1 -
23/08:30pm SSW 11 14 - - - - - - - 17.4 1015.0 -
23/08:00pm SSE 9 11 - - - - - - - 17.8 1014.0 -
23/07:30pm SSE 9 11 - - - - - - - 17.5 1013.2 -
23/07:00pm S 9 12 - - - - - - - 17.6 1014.1 -
23/06:30pm S 11 16 - - - - - - - 17.1 1013.5 -
23/06:00pm S 15 18 - - - - - - - 17.0 1013.1 -
23/05:30pm S 15 17 - - - - - - - 17.4 1013.7 -
23/05:00pm S 15 19 - - - - - - - 17.1 1013.5 -

Other formats

Comma delimited format used in spreadsheet applications
http://www.bom.gov.au/fwo/IDQ60701/IDQ60701.94371.axf

JavaScript Object Notation format (JSON) in row-major order
http://www.bom.gov.au/fwo/IDQ60701/IDQ60701.94371.json

Data quality

Most of these data are generated automatically and are frequently updated. Quality checks on data are not normally performed. It is possible for incorrect values to appear. Refer to information at About Latest Weather Observations and please check the disclaimer before using these data.